Time;durP1;ratioP1;P1;durP2;ratioP2;P2;SDS_P1;SDS_P2;PMS_P1;PMS_P2;Temp;Humidity;BMP_temperature;BMP_pressure;BME280_temperature;BME280_humidity;BME280_pressure;Samples;Min_cycle;Max_cycle;Signal;HPM_P1;HPM_P2
2021/03/02 00:03:17;;;;;;;22.42;16.70;;;4.90;99.90;;;;;;10571017;28;20040;-77
2021/03/02 00:08:20;;;;;;;23.58;16.55;;;4.90;99.90;;;;;;10570532;28;20059;-77
2021/03/02 00:13:23;;;;;;;26.92;16.63;;;4.80;99.90;;;;;;10569803;28;20423;-77
2021/03/02 00:18:27;;;;;;;22.85;17.15;;;4.80;99.90;;;;;;10569594;28;20043;-77
2021/03/02 00:23:35;;;;;;;20.80;15.85;;;4.80;99.90;;;;;;10551864;28;20492;-77
2021/03/02 00:28:38;;;;;;;21.92;15.82;;;4.70;99.90;;;;;;10569882;28;20048;-77
2021/03/02 00:33:44;;;;;;;19.02;14.95;;;4.60;99.90;;;;;;10569987;28;20062;-77
2021/03/02 00:38:46;;;;;;;21.75;16.35;;;4.60;99.90;;;;;;10570243;28;20124;-76
2021/03/02 00:43:49;;;;;;;22.67;16.13;;;4.50;99.90;;;;;;10534763;28;20488;-77
2021/03/02 00:48:51;;;;;;;19.60;14.93;;;4.40;99.90;;;;;;10569457;28;20048;-76
2021/03/02 00:53:53;;;;;;;18.77;14.70;;;4.40;99.90;;;;;;10568833;28;20055;-76
2021/03/02 00:58:54;;;;;;;19.75;14.18;;;4.40;99.90;;;;;;10569316;28;20048;-77
2021/03/02 01:03:56;;;;;;;17.17;12.35;;;4.20;99.90;;;;;;10568866;28;20050;-77
2021/03/02 01:08:57;;;;;;;17.50;13.23;;;4.10;99.90;;;;;;10569563;28;20051;-77
2021/03/02 01:13:58;;;;;;;19.60;14.10;;;4.00;99.90;;;;;;10550984;28;20581;-76
2021/03/02 01:19:00;;;;;;;18.15;13.48;;;4.00;99.90;;;;;;10569674;28;20381;-77
2021/03/02 01:24:02;;;;;;;17.92;13.68;;;3.90;99.90;;;;;;10550725;28;20055;-77
2021/03/02 01:29:04;;;;;;;16.33;12.13;;;3.70;99.90;;;;;;10576362;28;20044;-77
2021/03/02 01:34:05;;;;;;;17.60;12.48;;;3.60;99.90;;;;;;10576518;28;20047;-77
2021/03/02 01:39:07;;;;;;;16.95;12.45;;;3.60;99.90;;;;;;10576330;28;20063;-76
2021/03/02 01:44:08;;;;;;;17.77;12.80;;;3.60;99.90;;;;;;10558318;28;20082;-77
2021/03/02 01:49:10;;;;;;;20.20;13.73;;;3.60;99.90;;;;;;10557671;28;20502;-76
2021/03/02 01:54:13;;;;;;;16.00;12.05;;;3.60;99.90;;;;;;10576094;28;20052;-77
2021/03/02 01:59:15;;;;;;;20.70;13.70;;;3.50;99.90;;;;;;10575810;28;20051;-77
2021/03/02 02:04:29;;;;;;;18.00;13.57;;;3.40;99.90;;;;;;10557924;28;20457;-77
2021/03/02 02:09:46;;;;;;;20.08;13.48;;;3.40;99.90;;;;;;10574329;28;20474;-77
2021/03/02 02:15:03;;;;;;;17.55;13.13;;;3.40;99.90;;;;;;10575352;28;20055;-77
2021/03/02 02:20:08;;;;;;;17.20;12.73;;;3.30;99.90;;;;;;10555927;28;20443;-77
2021/03/02 02:25:12;;;;;;;17.63;13.18;;;3.30;99.90;;;;;;10574096;28;20403;-76
2021/03/02 02:30:15;;;;;;;22.98;13.77;;;3.40;99.90;;;;;;10556173;28;20040;-77
2021/03/02 02:35:20;;;;;;;31.85;18.50;;;3.30;99.90;;;;;;10555756;28;20078;-77
2021/03/02 02:40:24;;;;;;;23.30;14.75;;;3.20;99.90;;;;;;10573832;28;20078;-77
2021/03/02 02:45:25;;;;;;;18.67;13.88;;;3.10;99.90;;;;;;10573566;28;20082;-77
2021/03/02 02:50:29;;;;;;;20.75;13.60;;;3.10;99.90;;;;;;10573330;28;20124;-77
2021/03/02 02:55:45;;;;;;;19.85;13.65;;;3.10;99.90;;;;;;10573607;28;20143;-77
2021/03/02 03:00:50;;;;;;;22.23;14.68;;;3.10;99.90;;;;;;10573129;28;20483;-77
2021/03/02 03:05:56;;;;;;;19.80;14.48;;;3.10;99.90;;;;;;10580924;28;20073;-77
2021/03/02 03:10:59;;;;;;;16.75;12.43;;;3.00;99.90;;;;;;10580303;28;20126;-77
2021/03/02 03:16:05;;;;;;;20.05;13.63;;;3.00;99.90;;;;;;10580450;28;20086;-77
2021/03/02 03:21:07;;;;;;;19.33;14.13;;;2.90;99.90;;;;;;10580250;28;20051;-77
2021/03/02 03:26:14;;;;;;;18.55;12.88;;;2.90;99.90;;;;;;10580513;28;20117;-77
2021/03/02 03:31:17;;;;;;;22.77;14.50;;;2.90;99.90;;;;;;10580159;28;20075;-77
2021/03/02 03:36:19;;;;;;;20.60;13.90;;;2.90;99.90;;;;;;10579423;28;20055;-77
2021/03/02 03:41:21;;;;;;;20.40;14.55;;;2.80;99.90;;;;;;10579854;28;20086;-77
2021/03/02 03:46:23;;;;;;;20.75;13.68;;;2.80;99.90;;;;;;10579438;28;20086;-77
2021/03/02 03:51:26;;;;;;;21.83;15.88;;;2.70;99.90;;;;;;10578269;28;20035;-77
2021/03/02 03:56:28;;;;;;;18.15;12.80;;;2.70;99.90;;;;;;10578815;28;20086;-77
2021/03/02 04:01:30;;;;;;;19.83;13.63;;;2.70;99.90;;;;;;10579077;28;20122;-76
2021/03/02 04:06:33;;;;;;;17.60;13.55;;;2.70;99.90;;;;;;10556054;28;20120;-77
2021/03/02 04:11:35;;;;;;;19.55;13.50;;;2.60;99.90;;;;;;10571057;28;20108;-77
2021/03/02 04:16:37;;;;;;;24.50;14.88;;;2.60;99.90;;;;;;10570848;28;20071;-77
2021/03/02 04:21:39;;;;;;;27.60;16.17;;;2.50;99.90;;;;;;10571182;28;20410;-77
2021/03/02 04:26:41;;;;;;;21.83;14.50;;;2.50;99.90;;;;;;10570477;28;20525;-77
2021/03/02 04:31:42;;;;;;;22.95;14.60;;;2.50;99.90;;;;;;10571257;28;20082;-77
2021/03/02 04:36:44;;;;;;;21.80;14.68;;;2.50;99.90;;;;;;10570866;28;20050;-77
2021/03/02 04:41:45;;;;;;;20.85;14.40;;;2.50;99.90;;;;;;10509611;28;20083;-77
2021/03/02 04:46:46;;;;;;;24.25;14.23;;;2.40;99.90;;;;;;10544640;28;20052;-76
2021/03/02 04:51:48;;;;;;;20.20;14.57;;;2.40;99.90;;;;;;10571126;28;20042;-77
2021/03/02 04:56:49;;;;;;;21.33;14.35;;;2.40;99.90;;;;;;10569296;28;20131;-77
2021/03/02 05:01:51;;;;;;;22.20;14.40;;;2.40;99.90;;;;;;10573858;28;20122;-77
2021/03/02 05:06:53;;;;;;;21.77;13.90;;;2.40;99.90;;;;;;10578776;28;20047;-77
2021/03/02 05:11:54;;;;;;;20.73;14.05;;;2.50;99.90;;;;;;10578009;28;20056;-77
2021/03/02 05:16:55;;;;;;;27.00;14.80;;;2.50;99.90;;;;;;10577873;28;20130;-76
2021/03/02 05:21:57;;;;;;;22.50;15.32;;;2.40;99.90;;;;;;10578009;28;20461;-77
2021/03/02 05:26:59;;;;;;;22.85;15.02;;;2.10;99.90;;;;;;10576967;28;20059;-76
2021/03/02 05:32:00;;;;;;;29.33;15.80;;;2.00;99.90;;;;;;10557633;28;20614;-77
2021/03/02 05:37:02;;;;;;;25.67;16.13;;;1.90;99.90;;;;;;10577385;28;20052;-77
2021/03/02 05:42:06;;;;;;;24.38;15.70;;;1.90;99.90;;;;;;10577230;28;20048;-76
2021/03/02 05:47:08;;;;;;;21.85;13.70;;;2.00;99.90;;;;;;10577315;28;20055;-76
2021/03/02 05:52:11;;;;;;;27.50;14.90;;;2.00;99.90;;;;;;10576946;28;20048;-77
2021/03/02 05:57:13;;;;;;;20.85;14.52;;;2.10;99.90;;;;;;10576652;28;20079;-77
2021/03/02 06:02:14;;;;;;;23.10;14.88;;;2.10;99.90;;;;;;10556683;28;20040;-76
2021/03/02 06:07:16;;;;;;;31.77;17.80;;;2.10;99.90;;;;;;10575066;28;20130;-76
2021/03/02 06:12:18;;;;;;;28.65;17.67;;;1.90;99.90;;;;;;10571826;28;20144;-76
2021/03/02 06:17:24;;;;;;;30.38;17.30;;;1.90;99.90;;;;;;10572770;28;20048;-76
2021/03/02 06:22:39;;;;;;;25.70;16.60;;;1.90;99.90;;;;;;10554882;28;20423;-76
2021/03/02 06:27:46;;;;;;;26.83;17.65;;;1.90;99.90;;;;;;10571164;28;20036;-77
2021/03/02 06:32:52;;;;;;;20.75;15.15;;;2.00;99.90;;;;;;10573950;28;20134;-77
2021/03/02 06:37:53;;;;;;;32.33;19.90;;;2.00;99.90;;;;;;10575173;28;20047;-77
2021/03/02 06:42:55;;;;;;;27.20;17.80;;;2.10;99.90;;;;;;10574101;28;20075;-77
2021/03/02 06:48:06;;;;;;;42.28;22.05;;;2.20;99.90;;;;;;10574658;28;20495;-77
2021/03/02 06:53:10;;;;;;;26.15;16.77;;;2.20;99.90;;;;;;10555735;28;20538;-76
2021/03/02 06:58:17;;;;;;;25.42;16.25;;;2.30;99.90;;;;;;10574408;28;20583;-77
2021/03/02 07:03:30;;;;;;;31.83;18.45;;;2.40;99.90;;;;;;10556019;28;20079;-77
2021/03/02 07:08:32;;;;;;;35.42;19.08;;;2.50;99.90;;;;;;10572934;28;20051;-77
2021/03/02 07:13:34;;;;;;;28.10;17.45;;;2.60;99.90;;;;;;10573740;28;20090;-77
2021/03/02 07:18:35;;;;;;;30.75;18.58;;;2.70;99.90;;;;;;10573691;28;20113;-77
2021/03/02 07:23:40;;;;;;;21.48;15.00;;;2.90;99.90;;;;;;10572773;28;20419;-76
2021/03/02 07:28:42;;;;;;;27.83;17.67;;;3.00;99.90;;;;;;10554813;28;20160;-77
2021/03/02 07:33:46;;;;;;;29.67;19.02;;;3.10;99.90;;;;;;10572758;28;20127;-76
2021/03/02 07:39:10;;;;;;;26.05;18.67;;;3.20;99.90;;;;;;10572943;28;20078;-77
2021/03/02 07:44:12;;;;;;;23.75;17.33;;;3.30;99.90;;;;;;10572122;28;20075;-77
2021/03/02 07:49:23;;;;;;;34.40;21.48;;;3.50;99.90;;;;;;10572519;28;20547;-77
2021/03/02 07:54:24;;;;;;;33.43;21.40;;;3.70;99.90;;;;;;10571696;28;20492;-77
2021/03/02 07:59:25;;;;;;;35.38;23.73;;;4.00;99.90;;;;;;10571858;28;20839;-76
2021/03/02 08:04:27;;;;;;;29.40;18.60;;;4.20;99.90;;;;;;10539464;28;20123;-77
2021/03/02 08:09:30;;;;;;;29.42;20.50;;;4.50;99.90;;;;;;10535137;28;20139;-77
2021/03/02 08:14:31;;;;;;;34.00;19.60;;;4.60;99.90;;;;;;10549793;27;20039;-77
2021/03/02 08:19:48;;;;;;;29.92;19.45;;;5.20;99.90;;;;;;10567128;28;20086;-76
2021/03/02 08:24:59;;;;;;;29.98;18.08;;;5.60;99.90;;;;;;10568943;28;20090;-76
2021/03/02 08:30:01;;;;;;;24.85;17.52;;;6.10;99.90;;;;;;10569205;28;20080;-77
2021/03/02 08:35:06;;;;;;;21.80;15.23;;;6.80;99.90;;;;;;10568713;28;20104;-77
2021/03/02 08:40:19;;;;;;;23.83;16.23;;;7.30;99.90;;;;;;10568667;28;20082;-77
2021/03/02 08:45:22;;;;;;;21.65;15.45;;;7.40;99.90;;;;;;10567928;28;20139;-77
2021/03/02 08:50:39;;;;;;;22.60;15.82;;;7.30;99.90;;;;;;10556168;28;20126;-78
2021/03/02 08:55:41;;;;;;;20.00;14.60;;;7.40;99.90;;;;;;10551171;28;20054;-77
2021/03/02 09:00:42;;;;;;;19.70;14.27;;;7.30;99.90;;;;;;10567231;28;20491;-76
2021/03/02 09:05:45;;;;;;;20.13;14.32;;;7.50;99.90;;;;;;10560113;28;20499;-77
2021/03/02 09:11:01;;;;;;;20.90;13.90;;;7.90;99.90;;;;;;10567774;28;20112;-77
2021/03/02 09:16:24;;;;;;;21.83;14.05;;;8.10;99.90;;;;;;10567784;28;20507;-77
2021/03/02 09:21:57;;;;;;;18.77;14.00;;;8.40;99.90;;;;;;10568486;28;20131;-77
2021/03/02 09:27:15;;;;;;;19.50;13.27;;;8.60;99.90;;;;;;10568622;28;20063;-77
2021/03/02 09:32:27;;;;;;;18.58;13.52;;;8.80;99.90;;;;;;10567680;28;20074;-77
2021/03/02 09:37:30;;;;;;;18.55;12.40;;;8.90;99.90;;;;;;10568107;28;20511;-70
2021/03/02 09:42:34;;;;;;;19.45;13.05;;;9.00;99.90;;;;;;10567891;28;20144;-70
2021/03/02 09:47:38;;;;;;;20.02;12.85;;;9.20;99.90;;;;;;10569463;28;20127;-70
2021/03/02 09:52:43;;;;;;;18.00;12.38;;;9.20;99.90;;;;;;10560639;28;20442;-70
2021/03/02 09:58:10;;;;;;;15.85;11.43;;;9.40;99.90;;;;;;10556869;28;20566;-70
2021/03/02 10:03:23;;;;;;;19.33;12.15;;;9.60;99.90;;;;;;10572921;28;20388;-70
2021/03/02 10:08:47;;;;;;;18.48;12.90;;;10.00;99.90;;;;;;10542994;28;20047;-71
2021/03/02 10:13:54;;;;;;;21.98;14.05;;;10.10;99.90;;;;;;10534425;27;20056;-70
2021/03/02 10:18:55;;;;;;;23.08;14.15;;;10.20;99.90;;;;;;10547626;28;20048;-70
2021/03/02 10:23:59;;;;;;;23.67;14.52;;;10.20;99.90;;;;;;10573214;28;20063;-70
2021/03/02 10:29:02;;;;;;;28.55;16.15;;;10.60;99.90;;;;;;10534808;28;20051;-70
2021/03/02 10:34:06;;;;;;;30.88;16.05;;;10.70;99.90;;;;;;10573865;28;20580;-70
2021/03/02 10:39:13;;;;;;;19.05;12.85;;;10.90;99.90;;;;;;10515872;28;20087;-70
2021/03/02 10:44:15;;;;;;;19.80;11.85;;;11.10;99.90;;;;;;10575058;28;20536;-70
2021/03/02 10:49:17;;;;;;;16.02;11.00;;;11.40;99.90;;;;;;10556440;28;20079;-70
2021/03/02 10:54:18;;;;;;;15.45;11.57;;;11.50;99.90;;;;;;10559400;27;20134;-70
2021/03/02 10:59:20;;;;;;;15.10;11.07;;;11.50;99.90;;;;;;10553433;28;20108;-70
2021/03/02 11:04:21;;;;;;;16.10;11.02;;;11.60;99.90;;;;;;10563923;28;20488;-68
2021/03/02 11:09:25;;;;;;;18.85;11.02;;;11.70;98.40;;;;;;10565953;28;20460;-68
2021/03/02 11:14:27;;;;;;;17.52;11.38;;;11.70;97.90;;;;;;10570915;28;20051;-68
2021/03/02 11:19:28;;;;;;;18.92;11.88;;;11.80;98.10;;;;;;10570959;28;20495;-68
2021/03/02 11:24:30;;;;;;;17.52;11.30;;;11.90;96.80;;;;;;10571768;28;20051;-68
2021/03/02 11:29:31;;;;;;;15.65;11.60;;;11.90;96.00;;;;;;10571104;28;20052;-68
2021/03/02 11:34:34;;;;;;;17.17;11.23;;;12.00;96.00;;;;;;10565863;28;20133;-68
2021/03/02 11:39:35;;;;;;;16.80;10.63;;;12.10;94.80;;;;;;10552657;28;20603;-68
2021/03/02 11:44:37;;;;;;;16.52;10.88;;;12.40;93.90;;;;;;10571504;28;20428;-68
2021/03/02 11:49:39;;;;;;;14.75;10.70;;;12.60;93.20;;;;;;10570549;28;20097;-71
2021/03/02 11:54:40;;;;;;;18.48;11.13;;;12.70;91.90;;;;;;10551681;28;20048;-70
2021/03/02 11:59:42;;;;;;;18.00;10.82;;;12.70;92.20;;;;;;10565395;27;20118;-70
2021/03/02 12:04:43;;;;;;;14.32;10.02;;;12.80;89.30;;;;;;10575549;27;20495;-70
2021/03/02 12:09:45;;;;;;;16.52;9.55;;;12.80;88.20;;;;;;10543453;28;20536;-70
2021/03/02 12:14:47;;;;;;;15.55;10.18;;;13.00;88.10;;;;;;10531183;27;20055;-70
2021/03/02 12:19:48;;;;;;;14.82;9.48;;;13.30;85.90;;;;;;10559432;28;20542;-70
2021/03/02 12:24:51;;;;;;;12.77;10.10;;;13.50;85.90;;;;;;10551380;28;20433;-70
2021/03/02 12:29:52;;;;;;;13.35;9.48;;;13.60;82.90;;;;;;10551139;28;20096;-70
2021/03/02 12:34:54;;;;;;;13.18;9.80;;;13.70;82.60;;;;;;10570838;28;20087;-70
2021/03/02 12:39:55;;;;;;;14.88;9.90;;;13.80;81.40;;;;;;10570080;28;20472;-69
2021/03/02 12:44:58;;;;;;;15.15;10.25;;;13.90;79.50;;;;;;10569540;28;20047;-69
2021/03/02 12:50:02;;;;;;;14.43;10.55;;;14.00;80.50;;;;;;10570041;28;20039;-70
2021/03/02 12:55:04;;;;;;;15.82;9.93;;;14.10;79.00;;;;;;10569739;28;20486;-69
2021/03/02 13:00:08;;;;;;;14.70;10.32;;;14.10;76.90;;;;;;10569869;28;20296;-69
2021/03/02 13:05:10;;;;;;;18.45;10.15;;;14.30;77.30;;;;;;10567279;28;20126;-70
2021/03/02 13:10:12;;;;;;;18.20;10.27;;;14.50;75.70;;;;;;10565704;28;20063;-69
2021/03/02 13:15:15;;;;;;;13.85;9.90;;;14.60;74.30;;;;;;10531314;28;20058;-70
2021/03/02 13:20:17;;;;;;;14.32;9.52;;;14.60;73.30;;;;;;10566138;28;20123;-70
2021/03/02 13:25:19;;;;;;;16.77;9.93;;;14.90;74.80;;;;;;10556577;28;20076;-69
2021/03/02 13:30:23;;;;;;;13.30;9.55;;;14.70;71.90;;;;;;10575463;28;20064;-70
2021/03/02 13:35:25;;;;;;;14.07;9.98;;;14.90;71.50;;;;;;10571439;28;20563;-70
2021/03/02 13:40:27;;;;;;;15.88;10.40;;;15.10;72.10;;;;;;10556827;28;20494;-70
2021/03/02 13:45:30;;;;;;;14.23;10.23;;;15.10;69.80;;;;;;10574685;28;20131;-70
2021/03/02 13:50:32;;;;;;;18.20;10.57;;;15.30;68.60;;;;;;10573862;28;20100;-70
2021/03/02 13:55:33;;;;;;;14.80;10.80;;;15.30;69.10;;;;;;10574809;28;20475;-69
2021/03/02 14:00:35;;;;;;;16.40;10.50;;;15.40;69.10;;;;;;10574399;28;20122;-70
2021/03/02 14:05:38;;;;;;;13.57;10.77;;;15.50;67.50;;;;;;10555586;28;20054;-70
2021/03/02 14:10:42;;;;;;;15.93;11.30;;;15.60;69.00;;;;;;10574093;28;20059;-69
2021/03/02 14:15:46;;;;;;;13.52;10.48;;;15.60;67.40;;;;;;10553305;28;20071;-70
2021/03/02 14:20:49;;;;;;;14.77;9.82;;;15.80;68.20;;;;;;10556312;28;20039;-69
2021/03/02 14:25:51;;;;;;;17.35;10.88;;;15.90;66.80;;;;;;10575888;28;20047;-70
2021/03/02 14:30:53;;;;;;;17.13;10.80;;;15.90;66.10;;;;;;10575165;28;20127;-69
2021/03/02 14:35:54;;;;;;;14.02;10.43;;;15.80;65.90;;;;;;10574661;28;20154;-69
2021/03/02 14:40:55;;;;;;;15.77;11.80;;;16.00;65.20;;;;;;10575494;28;20135;-70
2021/03/02 14:45:59;;;;;;;17.13;11.13;;;15.90;65.00;;;;;;10573020;28;20134;-70
2021/03/02 14:51:02;;;;;;;15.00;10.60;;;16.00;64.70;;;;;;10573785;28;20082;-69
2021/03/02 14:56:17;;;;;;;14.93;10.35;;;16.00;63.50;;;;;;10573515;28;20075;-69
2021/03/02 15:01:21;;;;;;;14.63;10.60;;;15.80;63.80;;;;;;10572969;28;20071;-70
2021/03/02 15:06:23;;;;;;;15.75;10.52;;;15.90;64.60;;;;;;10555869;28;20062;-70
2021/03/02 15:11:26;;;;;;;15.95;10.82;;;16.00;66.10;;;;;;10573095;28;20051;-70
2021/03/02 15:16:28;;;;;;;16.30;11.25;;;16.00;64.40;;;;;;10554835;28;20069;-70
2021/03/02 15:21:31;;;;;;;16.08;10.90;;;16.00;64.00;;;;;;10573079;28;20044;-70
2021/03/02 15:26:33;;;;;;;15.88;10.38;;;16.00;65.00;;;;;;10572260;28;20048;-70
2021/03/02 15:31:38;;;;;;;16.95;10.73;;;15.90;62.70;;;;;;10572636;28;20083;-70
2021/03/02 15:36:46;;;;;;;16.15;11.07;;;15.90;63.20;;;;;;10572750;28;20055;-70
2021/03/02 15:41:47;;;;;;;14.65;9.77;;;15.90;62.60;;;;;;10555329;28;20109;-70
2021/03/02 15:46:49;;;;;;;14.18;10.00;;;15.90;63.40;;;;;;10572307;28;20472;-70
2021/03/02 15:51:51;;;;;;;17.48;9.70;;;15.80;63.40;;;;;;10571786;28;20118;-70
2021/03/02 15:56:54;;;;;;;17.30;10.77;;;15.60;65.60;;;;;;10571822;28;20043;-70
2021/03/02 16:02:11;;;;;;;15.90;10.50;;;15.60;63.20;;;;;;10569924;28;20100;-70
2021/03/02 16:07:24;;;;;;;16.80;10.65;;;15.50;63.80;;;;;;10570852;28;20046;-70
2021/03/02 16:12:30;;;;;;;15.02;10.45;;;15.50;63.70;;;;;;10552969;28;20151;-68
2021/03/02 16:17:39;;;;;;;16.90;11.45;;;15.50;64.70;;;;;;10570961;28;20140;-68
2021/03/02 16:22:49;;;;;;;17.40;10.25;;;15.20;67.60;;;;;;10571211;28;20060;-68
2021/03/02 16:27:56;;;;;;;16.23;10.45;;;15.00;67.60;;;;;;10569991;28;20082;-69
2021/03/02 16:32:59;;;;;;;17.67;10.60;;;14.80;68.10;;;;;;10570762;28;20395;-68
2021/03/02 16:38:01;;;;;;;18.40;9.68;;;14.60;68.20;;;;;;10571127;28;20036;-69
2021/03/02 16:43:02;;;;;;;16.23;10.05;;;14.50;68.60;;;;;;10552132;28;20048;-68
2021/03/02 16:48:04;;;;;;;16.30;9.57;;;14.50;69.00;;;;;;10570217;28;20067;-68
2021/03/02 16:53:17;;;;;;;16.63;10.13;;;14.40;68.00;;;;;;10570587;28;20047;-68
2021/03/02 16:58:27;;;;;;;18.20;9.30;;;14.20;69.30;;;;;;10556316;28;20138;-68
2021/03/02 17:03:42;;;;;;;16.58;9.60;;;13.90;71.00;;;;;;10558167;27;20086;-69
2021/03/02 17:08:47;;;;;;;14.68;9.23;;;13.60;72.10;;;;;;10569269;28;20044;-68
2021/03/02 17:13:51;;;;;;;16.05;9.60;;;13.30;73.90;;;;;;10576656;28;20058;-68
2021/03/02 17:18:52;;;;;;;16.50;11.60;;;12.90;76.80;;;;;;10574788;28;20376;-70
2021/03/02 17:23:54;;;;;;;26.52;15.18;;;12.60;81.50;;;;;;10558865;28;20171;-70
2021/03/02 17:28:56;;;;;;;20.13;13.05;;;12.40;83.40;;;;;;10556335;28;20566;-71
2021/03/02 17:33:57;;;;;;;21.23;12.80;;;12.20;85.50;;;;;;10575477;28;20058;-70
2021/03/02 17:38:59;;;;;;;21.45;13.02;;;12.00;89.80;;;;;;10556142;28;20074;-70
2021/03/02 17:44:00;;;;;;;19.88;14.40;;;11.80;91.50;;;;;;10556176;28;20136;-70
2021/03/02 17:49:02;;;;;;;24.45;14.25;;;11.60;94.00;;;;;;10575447;28;20043;-74
2021/03/02 17:54:04;;;;;;;24.55;16.50;;;11.50;94.60;;;;;;10576166;28;20075;-74
2021/03/02 17:59:07;;;;;;;26.50;16.20;;;11.40;97.20;;;;;;10576729;28;20079;-74
2021/03/02 18:04:10;;;;;;;29.65;17.65;;;11.10;99.30;;;;;;10574569;28;20048;-74
2021/03/02 18:09:11;;;;;;;18.73;12.65;;;10.90;99.90;;;;;;10572600;28;20082;-74
2021/03/02 18:14:12;;;;;;;19.98;11.50;;;10.70;99.90;;;;;;10575819;28;20079;-74
2021/03/02 18:19:14;;;;;;;19.17;10.68;;;10.60;99.90;;;;;;10574253;28;20465;-74
2021/03/02 18:24:16;;;;;;;16.38;11.20;;;10.50;99.90;;;;;;10575615;28;20075;-74
2021/03/02 18:29:18;;;;;;;30.25;20.95;;;10.30;99.90;;;;;;10574585;28;20063;-74
2021/03/02 18:34:19;;;;;;;18.63;13.60;;;10.20;99.90;;;;;;10556295;28;20138;-75
2021/03/02 18:39:21;;;;;;;20.25;12.50;;;9.90;99.90;;;;;;10575188;28;20431;-74
2021/03/02 18:44:24;;;;;;;18.00;12.45;;;9.70;99.90;;;;;;10574056;28;20518;-74
2021/03/02 18:49:25;;;;;;;16.77;11.02;;;9.60;99.90;;;;;;10572776;28;20458;-74
2021/03/02 18:54:27;;;;;;;18.38;11.82;;;9.50;99.90;;;;;;10555842;28;20476;-74
2021/03/02 18:59:28;;;;;;;20.50;12.25;;;9.40;99.90;;;;;;10574231;28;20112;-74
2021/03/02 19:04:30;;;;;;;16.48;10.35;;;9.30;99.90;;;;;;10573044;28;20438;-73
2021/03/02 19:09:31;;;;;;;14.90;10.65;;;9.20;99.90;;;;;;10572281;28;20667;-73
2021/03/02 19:14:33;;;;;;;17.45;11.77;;;9.00;99.90;;;;;;10568444;28;20131;-74
2021/03/02 19:19:35;;;;;;;16.30;10.88;;;8.90;99.90;;;;;;10570585;28;20149;-74
2021/03/02 19:24:36;;;;;;;15.70;10.63;;;8.80;99.90;;;;;;10569480;28;20039;-73
2021/03/02 19:29:38;;;;;;;16.77;11.25;;;8.70;99.90;;;;;;10548711;28;20090;-74
2021/03/02 19:34:40;;;;;;;19.85;12.35;;;8.60;99.90;;;;;;10551317;28;20079;-74
2021/03/02 19:39:42;;;;;;;18.15;11.88;;;8.50;99.90;;;;;;10569331;28;20044;-74
2021/03/02 19:44:45;;;;;;;19.33;13.48;;;8.40;99.90;;;;;;10569596;28;20075;-73
2021/03/02 19:49:47;;;;;;;19.95;12.32;;;8.30;99.90;;;;;;10571642;28;20052;-74
2021/03/02 19:54:49;;;;;;;21.30;13.27;;;8.30;99.90;;;;;;10570504;28;20105;-73
2021/03/02 19:59:51;;;;;;;18.35;12.13;;;8.10;99.90;;;;;;10569497;28;20043;-74
2021/03/02 20:04:52;;;;;;;18.08;12.25;;;7.90;99.90;;;;;;10570129;28;20051;-74
2021/03/02 20:09:54;;;;;;;16.17;12.27;;;7.90;99.90;;;;;;10568487;28;20052;-74
2021/03/02 20:14:56;;;;;;;22.30;11.70;;;7.80;99.90;;;;;;10569035;28;20539;-74
2021/03/02 20:19:58;;;;;;;18.38;11.88;;;7.70;99.90;;;;;;10569138;28;20135;-73
2021/03/02 20:25:01;;;;;;;18.10;11.70;;;7.70;99.90;;;;;;10569005;28;20289;-73
2021/03/02 20:30:06;;;;;;;16.27;11.10;;;7.60;99.90;;;;;;10570071;28;20123;-73
2021/03/02 20:35:08;;;;;;;17.27;11.25;;;7.50;99.90;;;;;;10550558;28;20139;-73
2021/03/02 20:40:10;;;;;;;17.60;11.20;;;7.40;99.90;;;;;;10552143;28;20059;-73
2021/03/02 20:45:13;;;;;;;16.08;11.20;;;7.30;99.90;;;;;;10570262;28;20048;-73
2021/03/02 20:50:15;;;;;;;18.55;11.70;;;7.10;99.90;;;;;;10568545;28;20474;-73
2021/03/02 20:55:20;;;;;;;19.10;10.50;;;7.00;99.90;;;;;;10550537;28;20058;-73
2021/03/02 21:00:26;;;;;;;16.13;11.15;;;6.80;99.90;;;;;;10535148;28;20058;-73
2021/03/02 21:05:28;;;;;;;18.65;11.70;;;6.80;99.90;;;;;;10568701;28;20087;-73
2021/03/02 21:10:30;;;;;;;18.40;11.30;;;6.70;99.90;;;;;;10550655;28;20047;-73
2021/03/02 21:15:31;;;;;;;19.92;12.82;;;6.60;99.90;;;;;;10550329;28;20567;-73
2021/03/02 21:20:33;;;;;;;21.05;12.80;;;6.60;99.90;;;;;;10568231;28;20075;-74
2021/03/02 21:25:35;;;;;;;20.63;13.25;;;6.50;99.90;;;;;;10568353;28;20122;-74
2021/03/02 21:30:36;;;;;;;21.70;14.05;;;6.50;99.90;;;;;;10549950;28;20082;-73
2021/03/02 21:35:50;;;;;;;25.98;15.52;;;6.40;99.90;;;;;;10568306;28;20075;-73
2021/03/02 21:40:52;;;;;;;21.77;14.57;;;6.30;99.90;;;;;;10567649;28;20451;-73
2021/03/02 21:45:54;;;;;;;18.42;12.25;;;6.30;99.90;;;;;;10574760;28;20130;-73
2021/03/02 21:50:56;;;;;;;21.35;13.45;;;6.20;99.90;;;;;;10575907;28;20073;-73
2021/03/02 21:55:58;;;;;;;23.38;14.77;;;6.20;99.90;;;;;;10575153;28;20052;-74
2021/03/02 22:01:03;;;;;;;26.92;14.32;;;6.00;99.90;;;;;;10575884;28;20048;-74
2021/03/02 22:06:05;;;;;;;24.58;15.48;;;6.00;99.90;;;;;;10575455;28;20569;-74
2021/03/02 22:11:06;;;;;;;24.33;14.30;;;5.90;99.90;;;;;;10574620;28;20477;-74
2021/03/02 22:16:07;;;;;;;21.92;13.90;;;5.70;99.90;;;;;;10574885;28;20575;-73
2021/03/02 22:21:09;;;;;;;23.33;14.63;;;5.70;99.90;;;;;;10574494;28;20134;-73
2021/03/02 22:26:11;;;;;;;24.38;15.27;;;5.60;99.90;;;;;;10539390;28;20447;-73
2021/03/02 22:31:22;;;;;;;23.38;14.10;;;5.50;99.90;;;;;;10557424;28;20051;-73
2021/03/02 22:36:24;;;;;;;22.58;14.02;;;5.40;99.90;;;;;;10557603;27;20047;-73
2021/03/02 22:41:26;;;;;;;22.52;14.02;;;5.30;99.90;;;;;;10570977;28;20053;-73
2021/03/02 22:46:27;;;;;;;24.98;14.55;;;5.40;99.90;;;;;;10571580;28;20090;-73
2021/03/02 22:51:30;;;;;;;25.80;14.52;;;5.30;99.90;;;;;;10570116;28;20390;-73
2021/03/02 22:56:32;;;;;;;22.05;13.95;;;5.30;99.90;;;;;;10567920;28;20151;-73
2021/03/02 23:01:41;;;;;;;22.48;14.63;;;5.30;99.90;;;;;;10555349;28;20428;-72
2021/03/02 23:06:43;;;;;;;23.20;15.73;;;5.20;99.90;;;;;;10571054;28;20447;-73
2021/03/02 23:11:44;;;;;;;26.55;15.68;;;5.20;99.90;;;;;;10552706;28;20100;-73
2021/03/02 23:16:46;;;;;;;24.98;15.88;;;5.10;99.90;;;;;;10550594;28;20058;-73
2021/03/02 23:21:48;;;;;;;24.70;14.10;;;4.90;99.90;;;;;;10568509;28;20047;-73
2021/03/02 23:26:50;;;;;;;25.67;16.50;;;4.90;99.90;;;;;;10569989;28;20107;-73
2021/03/02 23:32:07;;;;;;;21.75;14.23;;;4.80;99.90;;;;;;10567444;28;20055;-73
2021/03/02 23:37:09;;;;;;;28.27;15.70;;;4.80;99.90;;;;;;10549016;28;20055;-73
2021/03/02 23:42:11;;;;;;;22.48;15.00;;;4.70;99.90;;;;;;10548496;28;20056;-73
2021/03/02 23:47:13;;;;;;;23.33;15.48;;;4.70;99.90;;;;;;10570090;28;20060;-73
2021/03/02 23:52:15;;;;;;;22.55;14.48;;;4.50;99.90;;;;;;10569895;28;20432;-73
2021/03/02 23:57:16;;;;;;;24.00;15.00;;;4.40;99.90;;;;;;10570732;28;20079;-73
